sensor_id;sensor_type;location;lat;lon;timestamp;pressure;altitude;pressure_sealevel;temperature;humidity
56731;BME280;42613;47.424;8.560;2022-10-16T00:01:10;96648.78;;;14.41;93.39
56731;BME280;42613;47.424;8.560;2022-10-16T00:03:37;96644.25;;;14.41;92.76
56731;BME280;42613;47.424;8.560;2022-10-16T00:06:03;96644.88;;;14.37;93.18
56731;BME280;42613;47.424;8.560;2022-10-16T00:08:28;96639.97;;;14.34;93.06
56731;BME280;42613;47.424;8.560;2022-10-16T00:13:31;96645.00;;;14.17;94.43
56731;BME280;42613;47.424;8.560;2022-10-16T00:15:57;96654.31;;;14.14;94.26
56731;BME280;42613;47.424;8.560;2022-10-16T00:18:23;96640.91;;;14.14;94.90
56731;BME280;42613;47.424;8.560;2022-10-16T00:20:49;96650.38;;;14.17;94.73
56731;BME280;42613;47.424;8.560;2022-10-16T00:23:14;96643.34;;;14.22;94.05
56731;BME280;42613;47.424;8.560;2022-10-16T00:25:39;96660.47;;;14.15;94.63
56731;BME280;42613;47.424;8.560;2022-10-16T00:28:05;96653.09;;;14.10;94.95
56731;BME280;42613;47.424;8.560;2022-10-16T00:30:30;96657.78;;;14.15;94.60
56731;BME280;42613;47.424;8.560;2022-10-16T00:32:56;96656.97;;;14.14;94.67
56731;BME280;42613;47.424;8.560;2022-10-16T00:35:21;96655.28;;;14.20;94.08
56731;BME280;42613;47.424;8.560;2022-10-16T00:37:47;96656.75;;;14.22;94.14
56731;BME280;42613;47.424;8.560;2022-10-16T00:40:12;96652.84;;;14.18;94.25
56731;BME280;42613;47.424;8.560;2022-10-16T00:42:38;96651.59;;;14.21;94.17
56731;BME280;42613;47.424;8.560;2022-10-16T00:45:04;96659.63;;;14.21;94.18
56731;BME280;42613;47.424;8.560;2022-10-16T00:50:13;96663.31;;;14.20;93.93
56731;BME280;42613;47.424;8.560;2022-10-16T00:52:46;96661.69;;;14.19;94.34
56731;BME280;42613;47.424;8.560;2022-10-16T00:55:12;96664.16;;;14.20;94.19
56731;BME280;42613;47.424;8.560;2022-10-16T00:57:39;96651.38;;;14.22;93.83
56731;BME280;42613;47.424;8.560;2022-10-16T01:00:07;96665.78;;;14.21;94.14
56731;BME280;42613;47.424;8.560;2022-10-16T01:02:36;96664.53;;;14.24;93.51
56731;BME280;42613;47.424;8.560;2022-10-16T01:05:02;96659.41;;;14.22;94.05
56731;BME280;42613;47.424;8.560;2022-10-16T01:07:54;96663.31;;;14.20;94.54
56731;BME280;42613;47.424;8.560;2022-10-16T01:10:35;96658.44;;;14.10;94.64
56731;BME280;42613;47.424;8.560;2022-10-16T01:13:23;96664.00;;;14.09;94.84
56731;BME280;42613;47.424;8.560;2022-10-16T01:16:04;96664.16;;;14.14;94.58
56731;BME280;42613;47.424;8.560;2022-10-16T01:18:39;96669.31;;;14.15;94.89
56731;BME280;42613;47.424;8.560;2022-10-16T01:24:26;96652.59;;;14.20;94.07
56731;BME280;42613;47.424;8.560;2022-10-16T01:27:15;96666.44;;;14.17;94.05
56731;BME280;42613;47.424;8.560;2022-10-16T01:35:04;96669.13;;;14.17;94.62
56731;BME280;42613;47.424;8.560;2022-10-16T01:37:44;96677.56;;;14.20;93.99
56731;BME280;42613;47.424;8.560;2022-10-16T01:40:14;96673.22;;;14.19;93.99
56731;BME280;42613;47.424;8.560;2022-10-16T01:42:44;96677.56;;;14.20;94.32
56731;BME280;42613;47.424;8.560;2022-10-16T01:45:11;96670.94;;;14.23;94.06
56731;BME280;42613;47.424;8.560;2022-10-16T01:47:39;96680.25;;;14.20;94.01
56731;BME280;42613;47.424;8.560;2022-10-16T01:50:08;96681.69;;;14.16;93.83
56731;BME280;42613;47.424;8.560;2022-10-16T01:52:39;96674.09;;;14.07;94.87
56731;BME280;42613;47.424;8.560;2022-10-16T01:55:07;96679.28;;;14.01;95.51
56731;BME280;42613;47.424;8.560;2022-10-16T01:57:36;96671.88;;;13.97;95.55
56731;BME280;42613;47.424;8.560;2022-10-16T02:00:07;96678.31;;;13.89;95.95
56731;BME280;42613;47.424;8.560;2022-10-16T02:02:34;96675.88;;;13.81;96.56
56731;BME280;42613;47.424;8.560;2022-10-16T02:05:10;96673.00;;;13.76;97.09
56731;BME280;42613;47.424;8.560;2022-10-16T02:07:37;96675.88;;;13.81;96.87
56731;BME280;42613;47.424;8.560;2022-10-16T02:10:03;96675.66;;;13.82;97.04
56731;BME280;42613;47.424;8.560;2022-10-16T02:12:31;96680.59;;;13.79;96.99
56731;BME280;42613;47.424;8.560;2022-10-16T02:14:58;96696.25;;;13.75;97.54
56731;BME280;42613;47.424;8.560;2022-10-16T02:17:24;96699.34;;;13.79;97.66
56731;BME280;42613;47.424;8.560;2022-10-16T02:19:52;96689.44;;;13.79;97.24
56731;BME280;42613;47.424;8.560;2022-10-16T02:22:28;96692.75;;;13.81;97.55
56731;BME280;42613;47.424;8.560;2022-10-16T02:27:35;96692.75;;;13.81;97.28
56731;BME280;42613;47.424;8.560;2022-10-16T02:30:12;96683.28;;;13.79;97.27
56731;BME280;42613;47.424;8.560;2022-10-16T02:32:41;96679.97;;;13.83;96.84
56731;BME280;42613;47.424;8.560;2022-10-16T02:35:08;96672.56;;;13.85;97.23
56731;BME280;42613;47.424;8.560;2022-10-16T02:37:35;96673.38;;;13.86;96.60
56731;BME280;42613;47.424;8.560;2022-10-16T02:40:03;96668.41;;;13.90;96.48
56731;BME280;42613;47.424;8.560;2022-10-16T02:42:37;96658.53;;;13.90;96.17
56731;BME280;42613;47.424;8.560;2022-10-16T02:45:04;96667.59;;;13.89;95.88
56731;BME280;42613;47.424;8.560;2022-10-16T02:47:29;96666.78;;;13.82;96.09
56731;BME280;42613;47.424;8.560;2022-10-16T02:49:55;96681.25;;;13.74;96.49
56731;BME280;42613;47.424;8.560;2022-10-16T02:52:20;96684.56;;;13.70;97.30
56731;BME280;42613;47.424;8.560;2022-10-16T02:54:45;96687.84;;;13.65;97.56
56731;BME280;42613;47.424;8.560;2022-10-16T02:57:11;96682.91;;;13.69;97.81
56731;BME280;42613;47.424;8.560;2022-10-16T02:59:37;96685.19;;;13.72;97.58
56731;BME280;42613;47.424;8.560;2022-10-16T03:02:02;96690.13;;;13.68;97.35
56731;BME280;42613;47.424;8.560;2022-10-16T03:04:28;96678.16;;;13.71;97.76
56731;BME280;42613;47.424;8.560;2022-10-16T03:06:53;96683.09;;;13.67;98.02
56731;BME280;42613;47.424;8.560;2022-10-16T03:09:18;96686.66;;;13.61;98.35
56731;BME280;42613;47.424;8.560;2022-10-16T03:11:44;96685.41;;;13.63;98.58
56731;BME280;42613;47.424;8.560;2022-10-16T03:14:09;96695.09;;;13.58;98.31
56731;BME280;42613;47.424;8.560;2022-10-16T03:16:34;96690.78;;;13.57;98.66
56731;BME280;42613;47.424;8.560;2022-10-16T03:19:00;96697.16;;;13.49;99.19
56731;BME280;42613;47.424;8.560;2022-10-16T03:21:25;96698.59;;;13.52;99.56
56731;BME280;42613;47.424;8.560;2022-10-16T03:23:50;96708.47;;;13.51;99.29
56731;BME280;42613;47.424;8.560;2022-10-16T03:26:16;96701.91;;;13.47;99.19
56731;BME280;42613;47.424;8.560;2022-10-16T03:28:41;96702.72;;;13.48;99.41
56731;BME280;42613;47.424;8.560;2022-10-16T03:31:06;96700.88;;;13.55;98.57
56731;BME280;42613;47.424;8.560;2022-10-16T03:33:33;96709.06;;;13.60;98.07
56731;BME280;42613;47.424;8.560;2022-10-16T03:35:58;96706.59;;;13.58;97.99
56731;BME280;42613;47.424;8.560;2022-10-16T03:38:26;96706.22;;;13.55;97.73
56731;BME280;42613;47.424;8.560;2022-10-16T03:40:51;96716.72;;;13.50;98.44
56731;BME280;42613;47.424;8.560;2022-10-16T03:43:17;96716.91;;;13.48;98.60
56731;BME280;42613;47.424;8.560;2022-10-16T03:45:42;96712.59;;;13.47;98.27
56731;BME280;42613;47.424;8.560;2022-10-16T03:48:07;96709.31;;;13.45;98.25
56731;BME280;42613;47.424;8.560;2022-10-16T03:50:33;96708.06;;;13.48;98.31
56731;BME280;42613;47.424;8.560;2022-10-16T03:52:58;96709.72;;;13.55;97.59
56731;BME280;42613;47.424;8.560;2022-10-16T03:55:24;96713.00;;;13.57;96.88
56731;BME280;42613;47.424;8.560;2022-10-16T03:57:49;96701.47;;;13.57;97.20
56731;BME280;42613;47.424;8.560;2022-10-16T04:00:15;96698.56;;;13.58;96.86
56731;BME280;42613;47.424;8.560;2022-10-16T04:02:40;96709.09;;;13.53;96.81
56731;BME280;42613;47.424;8.560;2022-10-16T04:05:06;96705.00;;;13.44;97.33
56731;BME280;42613;47.424;8.560;2022-10-16T04:07:31;96698.81;;;13.43;97.35
56731;BME280;42613;47.424;8.560;2022-10-16T04:09:57;96705.00;;;13.37;98.01
56731;BME280;42613;47.424;8.560;2022-10-16T04:12:24;96704.19;;;13.30;98.30
56731;BME280;42613;47.424;8.560;2022-10-16T04:14:49;96718.78;;;13.21;98.83
56731;BME280;42613;47.424;8.560;2022-10-16T04:17:14;96716.50;;;13.18;99.33
56731;BME280;42613;47.424;8.560;2022-10-16T04:19:40;96720.63;;;13.27;99.17
56731;BME280;42613;47.424;8.560;2022-10-16T04:22:05;96717.38;;;13.32;98.87
56731;BME280;42613;47.424;8.560;2022-10-16T04:24:30;96717.97;;;13.27;99.18
56731;BME280;42613;47.424;8.560;2022-10-16T04:26:56;96716.69;;;13.16;100.00
56731;BME280;42613;47.424;8.560;2022-10-16T04:29:21;96722.47;;;13.27;99.86
56731;BME280;42613;47.424;8.560;2022-10-16T04:31:47;96713.81;;;13.24;99.59
56731;BME280;42613;47.424;8.560;2022-10-16T04:34:12;96729.06;;;13.37;98.70
56731;BME280;42613;47.424;8.560;2022-10-16T04:36:37;96729.47;;;13.41;98.32
56731;BME280;42613;47.424;8.560;2022-10-16T04:39:03;96736.09;;;13.32;98.87
56731;BME280;42613;47.424;8.560;2022-10-16T04:41:28;96740.59;;;13.31;99.33
56731;BME280;42613;47.424;8.560;2022-10-16T04:43:53;96750.69;;;13.29;99.46
56731;BME280;42613;47.424;8.560;2022-10-16T04:46:19;96743.66;;;13.28;99.68
56731;BME280;42613;47.424;8.560;2022-10-16T04:48:44;96751.28;;;13.31;99.91
56731;BME280;42613;47.424;8.560;2022-10-16T04:51:10;96747.19;;;13.35;99.86
56731;BME280;42613;47.424;8.560;2022-10-16T04:53:35;96738.75;;;13.38;98.90
56731;BME280;42613;47.424;8.560;2022-10-16T04:56:01;96752.94;;;13.39;98.69
56731;BME280;42613;47.424;8.560;2022-10-16T04:58:27;96745.34;;;13.36;98.35
56731;BME280;42613;47.424;8.560;2022-10-16T05:00:52;96748.00;;;13.29;98.83
56731;BME280;42613;47.424;8.560;2022-10-16T05:03:18;96739.34;;;13.27;99.25
56731;BME280;42613;47.424;8.560;2022-10-16T05:05:44;96749.66;;;13.30;99.13
56731;BME280;42613;47.424;8.560;2022-10-16T05:08:11;96751.50;;;13.36;98.47
56731;BME280;42613;47.424;8.560;2022-10-16T05:10:36;96751.91;;;13.33;97.88
56731;BME280;42613;47.424;8.560;2022-10-16T05:13:02;96750.47;;;13.37;97.80
56731;BME280;42613;47.424;8.560;2022-10-16T05:15:27;96747.78;;;13.37;97.25
56731;BME280;42613;47.424;8.560;2022-10-16T05:17:54;96757.06;;;13.35;97.20
56731;BME280;42613;47.424;8.560;2022-10-16T05:20:19;96752.94;;;13.32;96.89
56731;BME280;42613;47.424;8.560;2022-10-16T05:22:44;96748.00;;;13.29;97.12
56731;BME280;42613;47.424;8.560;2022-10-16T05:25:10;96744.50;;;13.29;97.03
56731;BME280;42613;47.424;8.560;2022-10-16T05:27:36;96740.56;;;13.24;97.65
56731;BME280;42613;47.424;8.560;2022-10-16T05:30:01;96742.66;;;13.29;96.75
56731;BME280;42613;47.424;8.560;2022-10-16T05:32:27;96743.06;;;13.33;96.13
56731;BME280;42613;47.424;8.560;2022-10-16T05:34:52;96743.50;;;13.30;96.38
56731;BME280;42613;47.424;8.560;2022-10-16T05:37:17;96749.41;;;13.18;96.38
56731;BME280;42613;47.424;8.560;2022-10-16T05:39:43;96752.94;;;13.19;96.86
56731;BME280;42613;47.424;8.560;2022-10-16T05:42:08;96743.69;;;13.15;96.93
56731;BME280;42613;47.424;8.560;2022-10-16T05:44:33;96740.19;;;13.21;97.14
56731;BME280;42613;47.424;8.560;2022-10-16T05:46:59;96747.59;;;13.12;97.72
56731;BME280;42613;47.424;8.560;2022-10-16T05:49:24;96754.56;;;13.13;97.23
56731;BME280;42613;47.424;8.560;2022-10-16T05:51:49;96752.09;;;13.12;97.97
56731;BME280;42613;47.424;8.560;2022-10-16T05:54:15;96760.34;;;13.17;97.79
56731;BME280;42613;47.424;8.560;2022-10-16T05:56:40;96756.19;;;13.08;98.64
56731;BME280;42613;47.424;8.560;2022-10-16T05:59:05;96759.28;;;13.18;98.55
56731;BME280;42613;47.424;8.560;2022-10-16T06:01:31;96767.31;;;13.18;98.12
56731;BME280;42613;47.424;8.560;2022-10-16T06:03:57;96765.47;;;13.18;97.86
56731;BME280;42613;47.424;8.560;2022-10-16T06:06:26;96762.19;;;13.23;97.91
56731;BME280;42613;47.424;8.560;2022-10-16T06:08:53;96763.22;;;13.15;98.10
56731;BME280;42613;47.424;8.560;2022-10-16T06:11:26;96763.22;;;13.22;97.63
56731;BME280;42613;47.424;8.560;2022-10-16T06:13:57;96765.25;;;13.27;97.67
56731;BME280;42613;47.424;8.560;2022-10-16T06:16:24;96759.13;;;13.33;97.63
56731;BME280;42613;47.424;8.560;2022-10-16T06:18:51;96759.91;;;13.27;97.91
56731;BME280;42613;47.424;8.560;2022-10-16T06:21:18;96762.81;;;13.25;97.63
56731;BME280;42613;47.424;8.560;2022-10-16T06:23:44;96770.63;;;13.33;97.53
56731;BME280;42613;47.424;8.560;2022-10-16T06:26:12;96769.44;;;13.36;97.62
56731;BME280;42613;47.424;8.560;2022-10-16T06:28:38;96775.78;;;13.41;97.38
56731;BME280;42613;47.424;8.560;2022-10-16T06:31:05;96777.03;;;13.32;97.96
56731;BME280;42613;47.424;8.560;2022-10-16T06:33:31;96784.22;;;13.38;97.49
56731;BME280;42613;47.424;8.560;2022-10-16T06:36:01;96794.31;;;13.43;97.24
56731;BME280;42613;47.424;8.560;2022-10-16T06:38:28;96797.59;;;13.38;97.24
56731;BME280;42613;47.424;8.560;2022-10-16T06:40:53;96796.78;;;13.38;97.83
56731;BME280;42613;47.424;8.560;2022-10-16T06:43:19;96801.91;;;13.39;97.47
56731;BME280;42613;47.424;8.560;2022-10-16T06:45:50;96812.22;;;13.42;97.68
56731;BME280;42613;47.424;8.560;2022-10-16T06:48:16;96817.97;;;13.39;97.80
56731;BME280;42613;47.424;8.560;2022-10-16T06:50:41;96817.78;;;13.41;97.83
56731;BME280;42613;47.424;8.560;2022-10-16T06:53:06;96820.25;;;13.42;98.12
56731;BME280;42613;47.424;8.560;2022-10-16T06:55:32;96828.47;;;13.41;98.21
56731;BME280;42613;47.424;8.560;2022-10-16T06:57:57;96832.38;;;13.45;97.94
56731;BME280;42613;47.424;8.560;2022-10-16T07:00:22;96835.25;;;13.43;98.13
56731;BME280;42613;47.424;8.560;2022-10-16T07:02:48;96848.88;;;13.49;98.27
56731;BME280;42613;47.424;8.560;2022-10-16T07:05:13;96846.81;;;13.51;98.21
56731;BME280;42613;47.424;8.560;2022-10-16T07:07:38;96848.03;;;13.55;97.87
56731;BME280;42613;47.424;8.560;2022-10-16T07:10:04;96847.19;;;13.54;97.24
56731;BME280;42613;47.424;8.560;2022-10-16T07:12:29;96849.69;;;13.56;97.36
56731;BME280;42613;47.424;8.560;2022-10-16T07:14:55;96850.91;;;13.53;97.53
56731;BME280;42613;47.424;8.560;2022-10-16T07:17:21;96857.28;;;13.52;97.69
56731;BME280;42613;47.424;8.560;2022-10-16T07:19:46;96853.38;;;13.48;97.70
56731;BME280;42613;47.424;8.560;2022-10-16T07:22:12;96858.31;;;13.44;98.04
56731;BME280;42613;47.424;8.560;2022-10-16T07:24:37;96865.53;;;13.44;98.07
56731;BME280;42613;47.424;8.560;2022-10-16T07:27:02;96867.59;;;13.42;98.07
56731;BME280;42613;47.424;8.560;2022-10-16T07:29:28;96876.44;;;13.42;98.50
56731;BME280;42613;47.424;8.560;2022-10-16T07:31:53;96874.16;;;13.39;98.02
56731;BME280;42613;47.424;8.560;2022-10-16T07:34:19;96873.34;;;13.39;98.01
56731;BME280;42613;47.424;8.560;2022-10-16T07:36:50;96883.03;;;13.40;98.00
56731;BME280;42613;47.424;8.560;2022-10-16T07:39:17;96877.69;;;13.40;98.22
56731;BME280;42613;47.424;8.560;2022-10-16T07:41:45;96881.59;;;13.44;97.51
56731;BME280;42613;47.424;8.560;2022-10-16T07:44:10;96887.13;;;13.49;97.15
56731;BME280;42613;47.424;8.560;2022-10-16T07:46:36;96891.69;;;13.55;97.41
56731;BME280;42613;47.424;8.560;2022-10-16T07:49:02;96894.97;;;13.64;97.06
56731;BME280;42613;47.424;8.560;2022-10-16T07:51:28;96893.72;;;13.73;96.81
56731;BME280;42613;47.424;8.560;2022-10-16T07:53:54;96895.59;;;13.86;96.56
56731;BME280;42613;47.424;8.560;2022-10-16T07:56:25;96898.47;;;13.98;95.82
56731;BME280;42613;47.424;8.560;2022-10-16T07:58:50;96895.38;;;14.08;95.72
56731;BME280;42613;47.424;8.560;2022-10-16T08:01:17;96892.88;;;14.19;95.19
56731;BME280;42613;47.424;8.560;2022-10-16T08:03:50;96896.78;;;14.30;95.00
56731;BME280;42613;47.424;8.560;2022-10-16T08:06:17;96897.97;;;14.41;94.69
56731;BME280;42613;47.424;8.560;2022-10-16T08:08:43;96894.06;;;14.50;94.46
56731;BME280;42613;47.424;8.560;2022-10-16T08:11:08;96894.44;;;14.60;94.17
56731;BME280;42613;47.424;8.560;2022-10-16T08:13:34;96894.22;;;14.69;94.01
56731;BME280;42613;47.424;8.560;2022-10-16T08:16:00;96896.66;;;14.77;93.93
56731;BME280;42613;47.424;8.560;2022-10-16T08:18:25;96887.31;;;14.93;93.01
56731;BME280;42613;47.424;8.560;2022-10-16T08:20:58;96892.22;;;15.02;92.10
56731;BME280;42613;47.424;8.560;2022-10-16T08:23:25;96885.19;;;15.08;92.58
56731;BME280;42613;47.424;8.560;2022-10-16T08:25:52;96891.72;;;15.19;91.90
56731;BME280;42613;47.424;8.560;2022-10-16T08:28:18;96895.56;;;15.30;91.26
56731;BME280;42613;47.424;8.560;2022-10-16T08:30:43;96901.91;;;15.42;90.40
56731;BME280;42613;47.424;8.560;2022-10-16T08:33:09;96903.88;;;15.53;90.02
56731;BME280;42613;47.424;8.560;2022-10-16T08:35:34;96908.34;;;15.66;88.88
56731;BME280;42613;47.424;8.560;2022-10-16T08:37:59;96905.00;;;15.77;87.43
56731;BME280;42613;47.424;8.560;2022-10-16T08:40:28;96909.44;;;15.90;86.30
56731;BME280;42613;47.424;8.560;2022-10-16T08:48:48;96917.03;;;16.18;84.60
56731;BME280;42613;47.424;8.560;2022-10-16T08:51:35;96918.84;;;16.24;84.29
56731;BME280;42613;47.424;8.560;2022-10-16T08:54:04;96924.53;;;16.35;84.92
56731;BME280;42613;47.424;8.560;2022-10-16T08:56:30;96914.09;;;16.45;84.82
56731;BME280;42613;47.424;8.560;2022-10-16T08:58:57;96915.91;;;16.51;84.39
56731;BME280;42613;47.424;8.560;2022-10-16T09:01:29;96924.56;;;16.72;83.40
56731;BME280;42613;47.424;8.560;2022-10-16T09:12:28;96924.59;;;17.08;81.76
56731;BME280;42613;47.424;8.560;2022-10-16T09:21:08;96923.53;;;17.70;76.48
56731;BME280;42613;47.424;8.560;2022-10-16T09:23:38;96930.72;;;17.88;75.87
56731;BME280;42613;47.424;8.560;2022-10-16T09:26:10;96935.34;;;18.11;74.04
56731;BME280;42613;47.424;8.560;2022-10-16T09:28:36;96938.63;;;18.25;73.63
56731;BME280;42613;47.424;8.560;2022-10-16T09:31:01;96940.16;;;18.33;73.89
56731;BME280;42613;47.424;8.560;2022-10-16T09:33:35;96940.16;;;18.44;72.41
56731;BME280;42613;47.424;8.560;2022-10-16T09:36:08;96935.00;;;18.55;72.21
56731;BME280;42613;47.424;8.560;2022-10-16T09:38:38;96939.56;;;18.78;70.61
56731;BME280;42613;47.424;8.560;2022-10-16T09:41:23;96933.66;;;19.04;69.35
56731;BME280;42613;47.424;8.560;2022-10-16T09:44:01;96936.09;;;19.18;69.37
56731;BME280;42613;47.424;8.560;2022-10-16T09:46:34;96931.94;;;19.27;67.83
56731;BME280;42613;47.424;8.560;2022-10-16T09:49:50;96924.47;;;19.46;67.20
56731;BME280;42613;47.424;8.560;2022-10-16T09:52:25;96917.19;;;19.46;67.19
56731;BME280;42613;47.424;8.560;2022-10-16T09:57:37;96920.25;;;19.67;66.12
56731;BME280;42613;47.424;8.560;2022-10-16T10:00:08;96924.97;;;19.88;63.95
56731;BME280;42613;47.424;8.560;2022-10-16T10:02:35;96936.19;;;19.97;63.86
56731;BME280;42613;47.424;8.560;2022-10-16T10:05:21;96928.44;;;20.01;63.98
56731;BME280;42613;47.424;8.560;2022-10-16T10:07:59;96923.84;;;20.18;63.64
56731;BME280;42613;47.424;8.560;2022-10-16T10:10:41;96915.78;;;20.23;62.43
56731;BME280;42613;47.424;8.560;2022-10-16T10:13:21;96920.00;;;20.53;60.65
56731;BME280;42613;47.424;8.560;2022-10-16T10:15:47;96925.13;;;20.66;59.10
56731;BME280;42613;47.424;8.560;2022-10-16T10:18:18;96922.81;;;20.75;59.32
56731;BME280;42613;47.424;8.560;2022-10-16T10:20:45;96917.44;;;20.80;59.78
56731;BME280;42613;47.424;8.560;2022-10-16T10:23:29;96903.16;;;20.85;59.78
56731;BME280;42613;47.424;8.560;2022-10-16T10:26:07;96907.69;;;21.01;59.75
56731;BME280;42613;47.424;8.560;2022-10-16T10:32:04;96898.22;;;21.26;58.59
56731;BME280;42613;47.424;8.560;2022-10-16T10:35:02;96911.84;;;21.09;59.47
56731;BME280;42613;47.424;8.560;2022-10-16T10:38:01;96913.34;;;21.44;58.67
56731;BME280;42613;47.424;8.560;2022-10-16T10:46:34;96900.00;;;21.96;53.54
56731;BME280;42613;47.424;8.560;2022-10-16T10:49:26;96902.78;;;22.34;51.89
56731;BME280;42613;47.424;8.560;2022-10-16T10:55:31;96905.91;;;22.58;48.98
56731;BME280;42613;47.424;8.560;2022-10-16T11:01:47;96905.03;;;23.00;48.78
56731;BME280;42613;47.424;8.560;2022-10-16T11:08:17;96891.34;;;23.53;44.87
56731;BME280;42613;47.424;8.560;2022-10-16T11:11:34;96893.34;;;23.88;44.91
56731;BME280;42613;47.424;8.560;2022-10-16T11:14:31;96890.91;;;23.97;45.85
56731;BME280;42613;47.424;8.560;2022-10-16T11:20:17;96887.91;;;24.09;44.69
56731;BME280;42613;47.424;8.560;2022-10-16T12:16:20;96830.41;;;28.43;34.27
56731;BME280;42613;47.424;8.560;2022-10-16T12:18:47;96814.16;;;28.89;33.79
56731;BME280;42613;47.424;8.560;2022-10-16T12:21:17;96810.09;;;29.28;33.58
56731;BME280;42613;47.424;8.560;2022-10-16T12:23:58;96811.59;;;29.70;33.06
56731;BME280;42613;47.424;8.560;2022-10-16T12:32:33;96799.94;;;34.02;25.08
56731;BME280;42613;47.424;8.560;2022-10-16T12:35:22;96796.25;;;36.59;22.22
56731;BME280;42613;47.424;8.560;2022-10-16T12:45:30;96783.47;;;40.39;18.05
56731;BME280;42613;47.424;8.560;2022-10-16T12:48:27;96790.19;;;40.79;17.50
56731;BME280;42613;47.424;8.560;2022-10-16T12:51:22;96790.88;;;39.30;19.09
56731;BME280;42613;47.424;8.560;2022-10-16T13:00:58;96782.78;;;41.78;17.28
56731;BME280;42613;47.424;8.560;2022-10-16T13:29:09;96807.03;;;41.53;17.22
56731;BME280;42613;47.424;8.560;2022-10-16T13:46:04;96800.59;;;40.04;18.84
56731;BME280;42613;47.424;8.560;2022-10-16T13:52:18;96800.41;;;39.56;19.71
56731;BME280;42613;47.424;8.560;2022-10-16T13:55:02;96799.66;;;38.33;21.17
56731;BME280;42613;47.424;8.560;2022-10-16T14:18:59;96808.66;;;35.20;24.83
56731;BME280;42613;47.424;8.560;2022-10-16T14:25:52;96818.13;;;31.95;29.20
56731;BME280;42613;47.424;8.560;2022-10-16T14:29:00;96822.84;;;30.85;31.03
56731;BME280;42613;47.424;8.560;2022-10-16T14:31:56;96814.09;;;30.34;31.62
56731;BME280;42613;47.424;8.560;2022-10-16T14:34:41;96821.78;;;30.01;32.58
56731;BME280;42613;47.424;8.560;2022-10-16T14:40:52;96832.25;;;29.54;33.72
56731;BME280;42613;47.424;8.560;2022-10-16T14:43:38;96829.66;;;29.35;34.41
56731;BME280;42613;47.424;8.560;2022-10-16T14:46:28;96828.38;;;29.05;35.81
56731;BME280;42613;47.424;8.560;2022-10-16T14:49:18;96831.97;;;28.77;36.28
56731;BME280;42613;47.424;8.560;2022-10-16T14:51:50;96840.13;;;28.36;36.85
56731;BME280;42613;47.424;8.560;2022-10-16T14:54:18;96846.53;;;27.98;37.62
56731;BME280;42613;47.424;8.560;2022-10-16T14:59:39;96845.81;;;27.55;38.34
56731;BME280;42613;47.424;8.560;2022-10-16T15:02:20;96847.25;;;27.33;38.69
56731;BME280;42613;47.424;8.560;2022-10-16T15:04:52;96851.69;;;27.05;39.53
56731;BME280;42613;47.424;8.560;2022-10-16T15:07:18;96864.13;;;26.92;40.02
56731;BME280;42613;47.424;8.560;2022-10-16T15:09:43;96870.06;;;26.75;40.38
56731;BME280;42613;47.424;8.560;2022-10-16T15:12:08;96858.97;;;26.67;40.72
56731;BME280;42613;47.424;8.560;2022-10-16T15:14:34;96865.59;;;26.60;41.15
56731;BME280;42613;47.424;8.560;2022-10-16T15:17:04;96864.69;;;26.41;41.36
56731;BME280;42613;47.424;8.560;2022-10-16T15:19:30;96871.59;;;26.33;41.50
56731;BME280;42613;47.424;8.560;2022-10-16T15:22:03;96869.53;;;26.20;41.73
56731;BME280;42613;47.424;8.560;2022-10-16T15:24:29;96873.19;;;26.10;42.27
56731;BME280;42613;47.424;8.560;2022-10-16T15:26:57;96871.22;;;25.76;42.64
56731;BME280;42613;47.424;8.560;2022-10-16T15:29:22;96878.16;;;25.64;42.90
56731;BME280;42613;47.424;8.560;2022-10-16T15:31:48;96881.47;;;25.50;43.15
56731;BME280;42613;47.424;8.560;2022-10-16T15:34:15;96881.53;;;25.45;43.13
56731;BME280;42613;47.424;8.560;2022-10-16T15:36:40;96890.88;;;25.29;43.67
56731;BME280;42613;47.424;8.560;2022-10-16T15:39:13;96885.44;;;25.29;43.30
56731;BME280;42613;47.424;8.560;2022-10-16T15:41:42;96883.56;;;25.19;42.99
56731;BME280;42613;47.424;8.560;2022-10-16T15:44:07;96880.13;;;24.98;43.13
56731;BME280;42613;47.424;8.560;2022-10-16T15:46:33;96883.13;;;24.91;43.20
56731;BME280;42613;47.424;8.560;2022-10-16T15:48:59;96896.47;;;24.98;43.47
56731;BME280;42613;47.424;8.560;2022-10-16T15:51:45;96889.16;;;24.83;43.64
56731;BME280;42613;47.424;8.560;2022-10-16T15:54:13;96895.41;;;24.84;43.58
56731;BME280;42613;47.424;8.560;2022-10-16T15:56:38;96896.25;;;24.79;43.53
56731;BME280;42613;47.424;8.560;2022-10-16T15:59:04;96896.00;;;24.65;43.93
56731;BME280;42613;47.424;8.560;2022-10-16T16:01:38;96888.41;;;24.57;43.71
56731;BME280;42613;47.424;8.560;2022-10-16T16:04:09;96894.41;;;24.49;44.18
56731;BME280;42613;47.424;8.560;2022-10-16T16:06:37;96901.44;;;24.45;44.70
56731;BME280;42613;47.424;8.560;2022-10-16T16:09:04;96894.13;;;24.30;45.54
56731;BME280;42613;47.424;8.560;2022-10-16T16:11:30;96898.50;;;24.26;44.90
56731;BME280;42613;47.424;8.560;2022-10-16T16:14:06;96908.84;;;24.29;44.94
56731;BME280;42613;47.424;8.560;2022-10-16T16:16:32;96904.78;;;24.11;45.65
56731;BME280;42613;47.424;8.560;2022-10-16T16:19:03;96900.16;;;23.86;46.21
56731;BME280;42613;47.424;8.560;2022-10-16T16:21:31;96903.09;;;23.74;46.83
56731;BME280;42613;47.424;8.560;2022-10-16T16:23:59;96915.63;;;23.85;46.95
56731;BME280;42613;47.424;8.560;2022-10-16T16:26:34;96907.22;;;23.87;46.74
56731;BME280;42613;47.424;8.560;2022-10-16T16:29:05;96902.03;;;23.85;47.00
56731;BME280;42613;47.424;8.560;2022-10-16T16:31:32;96918.06;;;23.76;47.14
56731;BME280;42613;47.424;8.560;2022-10-16T16:33:58;96909.94;;;23.82;46.91
56731;BME280;42613;47.424;8.560;2022-10-16T16:36:27;96921.56;;;23.62;47.84
56731;BME280;42613;47.424;8.560;2022-10-16T16:38:52;96932.63;;;23.29;48.50
56731;BME280;42613;47.424;8.560;2022-10-16T16:41:20;96936.50;;;22.91;49.63
56731;BME280;42613;47.424;8.560;2022-10-16T16:43:47;96933.66;;;22.70;50.85
56731;BME280;42613;47.424;8.560;2022-10-16T16:46:13;96949.97;;;22.70;52.10